PWSweather.com
Personal Weather Stations
Station Observations
KPASPRIN10
East Vincent, East Vincent, PA 19475

East VincentEast Vincent, PA 19475

Lat: 40.170948, Lon: -75.629681

Elevation: 404

Station Type: Davis VP2

http://www.evweather.com

Latest ConditionsUpdated 7:00:01 PM EDT Wednesday, Oct 16, 2019
Currently Today's Max Today's Min Today's Average
Temperature 57.3°F14.1°C 62.7°F17.1°C 45.4°F7.4°C 54.5°F12.5°C
Dew Point 56.5°F13.6°C 60.9°F16.1°C 44.3°F6.8°C 53.2°F11.8°C
Winds 11.5 mph WNW18.5 kmh WNW 11.5 mph -18.5 kmh - - 1.7 mph 2.7 kmh
Wind Gusts 12.7 mph20.4 kmh 16.1 mph25.9 kmh - -
Humidity 97% 97% 89% 96%
Pressure 29.37 in994.6 mb 30.02 in1016.6 mb 29.37 in994.6 mb -
Precipitation - 1.61 in40.9 mm - -
Hour Temp Dew Point Humidity Winds Wind Gusts Pressure Precip Precip Rate Daily Precip Total
07:00 PM 57.3°F14.1°C 56.5°F13.6°C 97% 11.5 mph WNW18.5 kmh WNW 12.7 mph20.4 kmh 29.37 in994.6 mb - 0.22 in5.6 mm 1.61 in40.9 mm
06:50 PM 57.5°F14.2°C 56.7°F13.7°C 97% 4.6 mph NW7.4 kmh NW 10.4 mph16.7 kmh 29.37 in994.6 mb - 0.28 in7.1 mm 1.59 in40.4 mm
06:40 PM 57.6°F14.2°C 56.7°F13.7°C 97% 6.9 mph WNW11.1 kmh WNW 15.0 mph24.1 kmh 29.37 in994.6 mb - 0.37 in9.4 mm 1.56 in39.6 mm
06:30 PM 57.4°F14.1°C 56.6°F13.7°C 97% 4.6 mph NNW7.4 kmh NNW 11.5 mph18.5 kmh 29.37 in994.6 mb - 0.37 in9.4 mm 1.51 in38.4 mm
06:20 PM 57.3°F14.1°C 56.4°F13.6°C 97% 3.5 mph NW5.6 kmh NW 12.7 mph20.4 kmh 29.37 in994.6 mb - 0.37 in9.4 mm 1.46 in37.1 mm
06:10 PM 57.5°F14.2°C 56.7°F13.7°C 97% 8.1 mph NW13.0 kmh NW 13.8 mph22.2 kmh 29.37 in994.6 mb - 0.36 in9.1 mm 1.42 in36.1 mm
06:00 PM 57.5°F14.2°C 56.4°F13.6°C 96% 2.3 mph WNW3.7 kmh WNW 4.6 mph7.4 kmh 29.37 in994.6 mb - 0.39 in9.9 mm 1.40 in35.6 mm
05:50 PM 57.7°F14.3°C 56.5°F13.6°C 96% 4.6 mph W7.4 kmh W 9.2 mph14.8 kmh 29.38 in994.9 mb - 0.34 in8.6 mm 1.32 in33.5 mm
05:40 PM 57.8°F14.3°C 56.7°F13.7°C 96% 5.8 mph NW9.3 kmh NW 9.2 mph14.8 kmh 29.39 in995.3 mb - 0.25 in6.4 mm 1.19 in30.2 mm
05:30 PM 57.8°F14.3°C 56.7°F13.7°C 96% 2.3 mph N3.7 kmh N 3.5 mph5.6 kmh 29.39 in995.3 mb - 0.26 in6.6 mm 1.15 in29.2 mm
05:20 PM 58.0°F14.4°C 56.6°F13.7°C 95% 1.2 mph ESE1.9 kmh ESE 3.5 mph5.6 kmh 29.39 in995.3 mb - 0.27 in6.9 mm 1.10 in27.9 mm
05:10 PM 58.3°F14.6°C 57.2°F14.0°C 96% 2.3 mph E3.7 kmh E 8.1 mph13.0 kmh 29.39 in995.3 mb - 0.29 in7.4 mm 1.06 in26.9 mm
05:00 PM 58.5°F14.7°C 57.3°F14.1°C 96% 3.5 mph E5.6 kmh E 3.5 mph5.6 kmh 29.42 in996.3 mb - 0.29 in7.4 mm 1.02 in25.9 mm
04:50 PM 59.1°F15.1°C 58.0°F14.4°C 96% 2.3 mph E3.7 kmh E 5.8 mph9.3 kmh 29.43 in996.6 mb - 0.28 in7.1 mm 0.98 in24.9 mm
04:40 PM 59.7°F15.4°C 58.6°F14.8°C 96% 6.9 mph ESE11.1 kmh ESE 16.1 mph25.9 kmh 29.45 in997.3 mb - 0.28 in7.1 mm 0.94 in23.9 mm
04:30 PM 59.7°F15.4°C 58.6°F14.8°C 96% 1.2 mph ESE1.9 kmh ESE 3.5 mph5.6 kmh 29.47 in998.0 mb - 0.26 in6.6 mm 0.89 in22.6 mm
04:20 PM 59.6°F15.3°C 58.5°F14.7°C 96% 2.3 mph ENE3.7 kmh ENE 3.5 mph5.6 kmh 29.49 in998.6 mb - 0.27 in6.9 mm 0.84 in21.3 mm
04:10 PM 59.6°F15.3°C 58.5°F14.7°C 96% Calm Calm -- 29.50 in999.0 mb - 0.26 in6.6 mm 0.78 in19.8 mm
04:00 PM 59.5°F15.3°C 58.4°F14.7°C 96% Calm Calm -- 29.51 in999.3 mb - 0.32 in8.1 mm 0.74 in18.8 mm
03:50 PM 59.5°F15.3°C 58.4°F14.7°C 96% Calm Calm -- 29.51 in999.3 mb - 0.36 in9.1 mm 0.70 in17.8 mm
03:40 PM 59.8°F15.4°C 58.4°F14.7°C 95% 1.2 mph E1.9 kmh E 1.2 mph1.9 kmh 29.52 in999.7 mb - 0.38 in9.7 mm 0.66 in16.8 mm
03:30 PM 60.5°F15.8°C 59.0°F15.0°C 95% 4.6 mph ESE7.4 kmh ESE 8.1 mph13.0 kmh 29.54 in1000.3 mb - 0.42 in10.7 mm 0.63 in16.0 mm
03:20 PM 61.3°F16.3°C 59.8°F15.4°C 95% 4.6 mph E7.4 kmh E 6.9 mph11.1 kmh 29.55 in1000.7 mb - 0.42 in10.7 mm 0.58 in14.7 mm
03:10 PM 61.8°F16.6°C 60.6°F15.9°C 96% 3.5 mph SSE5.6 kmh SSE 10.4 mph16.7 kmh 29.55 in1000.7 mb - 0.39 in9.9 mm 0.52 in13.2 mm
03:00 PM 61.9°F16.6°C 60.7°F15.9°C 96% 5.8 mph S9.3 kmh S 11.5 mph18.5 kmh 29.57 in1001.4 mb - 0.34 in8.6 mm 0.42 in10.7 mm
02:50 PM 61.9°F16.6°C 60.8°F16.0°C 96% 5.8 mph SE9.3 kmh SE 9.2 mph14.8 kmh 29.57 in1001.4 mb - 0.27 in6.9 mm 0.35 in8.9 mm
02:40 PM 61.8°F16.6°C 60.7°F15.9°C 96% 5.8 mph SE9.3 kmh SE 8.1 mph13.0 kmh 29.58 in1001.7 mb - 0.22 in5.6 mm 0.29 in7.4 mm
02:30 PM 61.9°F16.6°C 60.7°F15.9°C 96% Calm Calm 3.5 mph5.6 kmh 29.59 in1002.0 mb - 0.16 in4.1 mm 0.22 in5.6 mm
02:20 PM 62.0°F16.7°C 60.8°F16.0°C 96% 2.3 mph E3.7 kmh E 3.5 mph5.6 kmh 29.59 in1002.0 mb - 0.11 in2.8 mm 0.17 in4.3 mm
02:10 PM 62.0°F16.7°C 60.8°F16.0°C 96% 1.2 mph E1.9 kmh E 2.3 mph3.7 kmh 29.60 in1002.4 mb - 0.09 in2.3 mm 0.14 in3.6 mm
02:00 PM 62.1°F16.7°C 60.9°F16.1°C 96% Calm Calm 3.5 mph5.6 kmh 29.60 in1002.4 mb - 0.05 in1.3 mm 0.08 in2.0 mm
01:50 PM 62.0°F16.7°C 60.9°F16.1°C 96% 1.2 mph E1.9 kmh E 3.5 mph5.6 kmh 29.61 in1002.7 mb - 0.07 in1.8 mm 0.08 in2.0 mm
01:40 PM 62.1°F16.7°C 60.7°F15.9°C 95% Calm Calm -- 29.63 in1003.4 mb - 0.06 in1.5 mm 0.07 in1.8 mm
01:30 PM 62.2°F16.8°C 60.8°F16.0°C 95% 1.2 mph SE1.9 kmh SE 3.5 mph5.6 kmh 29.64 in1003.7 mb - 0.06 in1.5 mm 0.06 in1.5 mm
01:20 PM 62.2°F16.8°C 60.8°F16.0°C 95% 2.3 mph SE3.7 kmh SE 3.5 mph5.6 kmh 29.65 in1004.1 mb - 0.06 in1.5 mm 0.06 in1.5 mm
01:10 PM 62.2°F16.8°C 60.5°F15.8°C 94% 1.2 mph SE1.9 kmh SE 3.5 mph5.6 kmh 29.66 in1004.4 mb - 0.05 in1.3 mm 0.05 in1.3 mm
01:00 PM 62.3°F16.8°C 60.6°F15.9°C 94% 3.5 mph SE5.6 kmh SE 6.9 mph11.1 kmh 29.66 in1004.4 mb - 0.03 in0.8 mm 0.03 in0.8 mm
12:50 PM 62.4°F16.9°C 60.3°F15.7°C 93% 6.9 mph SE11.1 kmh SE 9.2 mph14.8 kmh 29.66 in1004.4 mb - 0.02 in0.5 mm 0.02 in0.5 mm
12:40 PM 62.5°F16.9°C 60.2°F15.7°C 92% 5.8 mph SE9.3 kmh SE 9.2 mph14.8 kmh 29.67 in1004.7 mb - 0.01 in0.3 mm 0.01 in0.3 mm
12:30 PM 62.6°F17.0°C 59.9°F15.5°C 91% 4.6 mph SSE7.4 kmh SSE 9.2 mph14.8 kmh 29.68 in1005.1 mb - 0.00 in0.0 mm 0.00 in0.0 mm
12:20 PM 62.6°F17.0°C 59.6°F15.3°C 90% 3.5 mph SE5.6 kmh SE 6.9 mph11.1 kmh 29.69 in1005.4 mb - 0.00 in0.0 mm 0.00 in0.0 mm
12:10 PM 62.7°F17.1°C 59.7°F15.4°C 90% 3.5 mph SE5.6 kmh SE 8.1 mph13.0 kmh 29.70 in1005.8 mb - 0.00 in0.0 mm 0.00 in0.0 mm
12:00 PM 62.6°F17.0°C 59.6°F15.3°C 90% 3.5 mph SE5.6 kmh SE 6.9 mph11.1 kmh 29.70 in1005.8 mb - 0.00 in0.0 mm 0.00 in0.0 mm
11:50 AM 62.2°F16.8°C 58.9°F14.9°C 89% 4.6 mph SE7.4 kmh SE 6.9 mph11.1 kmh 29.71 in1006.1 mb - 0.00 in0.0 mm 0.00 in0.0 mm
11:40 AM 61.9°F16.6°C 58.6°F14.8°C 89% 4.6 mph SE7.4 kmh SE 3.5 mph5.6 kmh 29.71 in1006.1 mb - 0.00 in0.0 mm 0.00 in0.0 mm
11:30 AM 61.5°F16.4°C 58.2°F14.6°C 89% 3.5 mph SE5.6 kmh SE 6.9 mph11.1 kmh 29.72 in1006.4 mb - 0.00 in0.0 mm 0.00 in0.0 mm
11:20 AM 61.2°F16.2°C 58.2°F14.6°C 90% 2.3 mph S3.7 kmh S 2.3 mph3.7 kmh 29.74 in1007.1 mb - 0.00 in0.0 mm 0.00 in0.0 mm
11:10 AM 60.9°F16.1°C 58.3°F14.6°C 91% 2.3 mph S3.7 kmh S 4.6 mph7.4 kmh 29.75 in1007.5 mb - 0.00 in0.0 mm 0.00 in0.0 mm
11:00 AM 60.8°F16.0°C 58.5°F14.7°C 92% 3.5 mph SE5.6 kmh SE 4.6 mph7.4 kmh 29.75 in1007.5 mb - 0.00 in0.0 mm 0.00 in0.0 mm
10:50 AM 60.5°F15.8°C 58.5°F14.7°C 93% 3.5 mph SE5.6 kmh SE 4.6 mph7.4 kmh 29.76 in1007.8 mb - 0.00 in0.0 mm 0.00 in0.0 mm
10:40 AM 59.9°F15.5°C 58.2°F14.6°C 94% 4.6 mph SE7.4 kmh SE 6.9 mph11.1 kmh 29.77 in1008.1 mb - 0.00 in0.0 mm 0.00 in0.0 mm
10:30 AM 59.4°F15.2°C 58.0°F14.4°C 95% 3.5 mph SE5.6 kmh SE 5.8 mph9.3 kmh 29.78 in1008.5 mb - 0.00 in0.0 mm 0.00 in0.0 mm
10:20 AM 58.7°F14.8°C 57.6°F14.2°C 96% 3.5 mph SE5.6 kmh SE 3.5 mph5.6 kmh 29.79 in1008.8 mb - 0.00 in0.0 mm 0.00 in0.0 mm
10:10 AM 57.6°F14.2°C 56.4°F13.6°C 96% 2.3 mph SE3.7 kmh SE 3.5 mph5.6 kmh 29.80 in1009.1 mb - 0.00 in0.0 mm 0.00 in0.0 mm
10:00 AM 56.0°F13.3°C 55.2°F12.9°C 97% 1.2 mph ESE1.9 kmh ESE 3.5 mph5.6 kmh 29.80 in1009.1 mb - 0.00 in0.0 mm 0.00 in0.0 mm
09:50 AM 54.8°F12.7°C 54.0°F12.2°C 97% 1.2 mph ESE1.9 kmh ESE 3.5 mph5.6 kmh 29.81 in1009.5 mb - 0.00 in0.0 mm 0.00 in0.0 mm
09:40 AM 54.1°F12.3°C 53.3°F11.8°C 97% 2.3 mph ESE3.7 kmh ESE 3.5 mph5.6 kmh 29.82 in1009.8 mb - 0.00 in0.0 mm 0.00 in0.0 mm
09:30 AM 53.6°F12.0°C 52.8°F11.6°C 97% 1.2 mph E1.9 kmh E 2.3 mph3.7 kmh 29.83 in1010.2 mb - 0.00 in0.0 mm 0.00 in0.0 mm
09:20 AM 53.0°F11.7°C 52.2°F11.2°C 97% 2.3 mph ENE3.7 kmh ENE 3.5 mph5.6 kmh 29.84 in1010.5 mb - 0.00 in0.0 mm 0.00 in0.0 mm
09:10 AM 52.9°F11.6°C 52.1°F11.2°C 97% 2.3 mph E3.7 kmh E 3.5 mph5.6 kmh 29.85 in1010.8 mb - 0.00 in0.0 mm 0.00 in0.0 mm
09:00 AM 52.3°F11.3°C 51.5°F10.8°C 97% Calm Calm 1.2 mph1.9 kmh 29.86 in1011.2 mb - 0.00 in0.0 mm 0.00 in0.0 mm
08:50 AM 51.7°F10.9°C 50.9°F10.5°C 97% Calm Calm -- 29.88 in1011.9 mb - 0.00 in0.0 mm 0.00 in0.0 mm
08:40 AM 51.5°F10.8°C 50.7°F10.4°C 97% Calm Calm -- 29.88 in1011.9 mb - 0.00 in0.0 mm 0.00 in0.0 mm
08:30 AM 51.3°F10.7°C 50.5°F10.3°C 97% Calm Calm -- 29.89 in1012.2 mb - 0.00 in0.0 mm 0.00 in0.0 mm
08:20 AM 51.2°F10.7°C 50.4°F10.2°C 97% 2.3 mph E3.7 kmh E 3.5 mph5.6 kmh 29.88 in1011.9 mb - 0.00 in0.0 mm 0.00 in0.0 mm
08:10 AM 50.9°F10.5°C 50.1°F10.1°C 97% Calm Calm 2.3 mph3.7 kmh 29.88 in1011.9 mb - 0.00 in0.0 mm 0.00 in0.0 mm
08:00 AM 50.6°F10.3°C 49.8°F9.9°C 97% 1.2 mph NE1.9 kmh NE 2.3 mph3.7 kmh 29.87 in1011.5 mb - 0.00 in0.0 mm 0.00 in0.0 mm
07:50 AM 50.3°F10.2°C 49.5°F9.7°C 97% Calm Calm -- 29.88 in1011.9 mb - 0.00 in0.0 mm 0.00 in0.0 mm
07:40 AM 50.0°F10.0°C 49.2°F9.6°C 97% Calm Calm -- 29.88 in1011.9 mb - 0.00 in0.0 mm 0.00 in0.0 mm
07:30 AM 49.9°F9.9°C 48.8°F9.3°C 96% Calm Calm -- 29.89 in1012.2 mb - 0.00 in0.0 mm 0.00 in0.0 mm
07:20 AM 49.9°F9.9°C 48.8°F9.3°C 96% Calm Calm -- 29.89 in1012.2 mb - 0.00 in0.0 mm 0.00 in0.0 mm
07:10 AM 49.9°F9.9°C 49.1°F9.5°C 97% Calm Calm -- 29.89 in1012.2 mb - 0.00 in0.0 mm 0.00 in0.0 mm
07:00 AM 50.0°F10.0°C 49.2°F9.6°C 97% 1.2 mph ESE1.9 kmh ESE 3.5 mph5.6 kmh 29.89 in1012.2 mb - 0.00 in0.0 mm 0.00 in0.0 mm
06:50 AM 50.1°F10.1°C 49.3°F9.6°C 97% 1.2 mph ESE1.9 kmh ESE 2.3 mph3.7 kmh 29.90 in1012.5 mb - 0.00 in0.0 mm 0.00 in0.0 mm
06:40 AM 50.3°F10.2°C 49.5°F9.7°C 97% Calm Calm -- 29.91 in1012.9 mb - 0.00 in0.0 mm 0.00 in0.0 mm
06:30 AM 50.3°F10.2°C 49.5°F9.7°C 97% Calm Calm -- 29.91 in1012.9 mb - 0.00 in0.0 mm 0.00 in0.0 mm
06:20 AM 50.2°F10.1°C 49.4°F9.7°C 97% Calm Calm -- 29.92 in1013.2 mb - 0.00 in0.0 mm 0.00 in0.0 mm
06:10 AM 50.2°F10.1°C 49.4°F9.7°C 97% Calm Calm -- 29.93 in1013.5 mb - 0.00 in0.0 mm 0.00 in0.0 mm
06:00 AM 50.4°F10.2°C 49.6°F9.8°C 97% Calm Calm -- 29.93 in1013.5 mb - 0.00 in0.0 mm 0.00 in0.0 mm
05:50 AM 49.9°F9.9°C 49.1°F9.5°C 97% Calm Calm -- 29.93 in1013.5 mb - 0.00 in0.0 mm 0.00 in0.0 mm
05:40 AM 49.6°F9.8°C 48.8°F9.3°C 97% Calm Calm -- 29.94 in1013.9 mb - 0.00 in0.0 mm 0.00 in0.0 mm
05:30 AM 49.4°F9.7°C 48.6°F9.2°C 97% Calm Calm -- 29.94 in1013.9 mb - 0.00 in0.0 mm 0.00 in0.0 mm
05:20 AM 49.2°F9.6°C 48.4°F9.1°C 97% Calm Calm -- 29.94 in1013.9 mb - 0.00 in0.0 mm 0.00 in0.0 mm
05:10 AM 49.0°F9.4°C 48.2°F9.0°C 97% Calm Calm -- 29.94 in1013.9 mb - 0.00 in0.0 mm 0.00 in0.0 mm
05:00 AM 48.7°F9.3°C 47.9°F8.8°C 97% Calm Calm -- 29.94 in1013.9 mb - 0.00 in0.0 mm 0.00 in0.0 mm
04:50 AM 48.7°F9.3°C 47.9°F8.8°C 97% Calm Calm -- 29.95 in1014.2 mb - 0.00 in0.0 mm 0.00 in0.0 mm
04:40 AM 49.2°F9.6°C 48.4°F9.1°C 97% Calm Calm -- 29.95 in1014.2 mb - 0.00 in0.0 mm 0.00 in0.0 mm
04:30 AM 49.3°F9.6°C 48.5°F9.2°C 97% Calm Calm -- 29.95 in1014.2 mb - 0.00 in0.0 mm 0.00 in0.0 mm
04:20 AM 49.4°F9.7°C 48.6°F9.2°C 97% Calm Calm -- 29.95 in1014.2 mb - 0.00 in0.0 mm 0.00 in0.0 mm
04:10 AM 49.4°F9.7°C 48.6°F9.2°C 97% Calm Calm -- 29.95 in1014.2 mb - 0.00 in0.0 mm 0.00 in0.0 mm
04:00 AM 48.5°F9.2°C 47.7°F8.7°C 97% Calm Calm -- 29.96 in1014.6 mb - 0.00 in0.0 mm 0.00 in0.0 mm
03:50 AM 47.8°F8.8°C 47.0°F8.3°C 97% Calm Calm -- 29.95 in1014.2 mb - 0.00 in0.0 mm 0.00 in0.0 mm
03:40 AM 47.5°F8.6°C 46.7°F8.2°C 97% Calm Calm -- 29.96 in1014.6 mb - 0.00 in0.0 mm 0.00 in0.0 mm
03:30 AM 48.1°F8.9°C 47.3°F8.5°C 97% Calm Calm -- 29.96 in1014.6 mb - 0.00 in0.0 mm 0.00 in0.0 mm
03:20 AM 47.1°F8.4°C 46.2°F7.9°C 97% Calm Calm -- 29.97 in1014.9 mb - 0.00 in0.0 mm 0.00 in0.0 mm
03:10 AM 47.8°F8.8°C 47.0°F8.3°C 97% Calm Calm -- 29.98 in1015.2 mb - 0.00 in0.0 mm 0.00 in0.0 mm
03:00 AM 47.2°F8.4°C 46.4°F8.0°C 97% Calm Calm -- 29.98 in1015.2 mb - 0.00 in0.0 mm 0.00 in0.0 mm
02:50 AM 46.7°F8.2°C 45.9°F7.7°C 97% Calm Calm -- 29.99 in1015.6 mb - 0.00 in0.0 mm 0.00 in0.0 mm
02:40 AM 46.3°F7.9°C 45.3°F7.4°C 96% Calm Calm -- 29.99 in1015.6 mb - 0.00 in0.0 mm 0.00 in0.0 mm
02:30 AM 46.8°F8.2°C 45.7°F7.6°C 96% Calm Calm -- 29.99 in1015.6 mb - 0.00 in0.0 mm 0.00 in0.0 mm
02:20 AM 47.6°F8.7°C 46.8°F8.2°C 97% Calm Calm -- 30.00 in1015.9 mb - 0.00 in0.0 mm 0.00 in0.0 mm
02:10 AM 47.8°F8.8°C 47.0°F8.3°C 97% Calm Calm -- 30.00 in1015.9 mb - 0.00 in0.0 mm 0.00 in0.0 mm
02:00 AM 46.4°F8.0°C 45.6°F7.6°C 97% Calm Calm -- 30.00 in1015.9 mb - 0.00 in0.0 mm 0.00 in0.0 mm
01:50 AM 45.4°F7.4°C 44.3°F6.8°C 96% Calm Calm -- 30.00 in1015.9 mb - 0.00 in0.0 mm 0.00 in0.0 mm
01:40 AM 46.6°F8.1°C 45.5°F7.5°C 96% Calm Calm -- 30.00 in1015.9 mb - 0.00 in0.0 mm 0.00 in0.0 mm
01:30 AM 46.4°F8.0°C 45.3°F7.4°C 96% Calm Calm -- 30.01 in1016.3 mb - 0.00 in0.0 mm 0.00 in0.0 mm
01:20 AM 46.8°F8.2°C 45.7°F7.6°C 96% Calm Calm -- 30.01 in1016.3 mb - 0.00 in0.0 mm 0.00 in0.0 mm
01:10 AM 46.8°F8.2°C 45.7°F7.6°C 96% Calm Calm -- 30.01 in1016.3 mb - 0.00 in0.0 mm 0.00 in0.0 mm
01:00 AM 46.1°F7.8°C 44.7°F7.1°C 95% Calm Calm -- 30.02 in1016.6 mb - 0.00 in0.0 mm 0.00 in0.0 mm
12:50 AM 46.2°F7.9°C 44.6°F7.0°C 94% Calm Calm -- 30.02 in1016.6 mb - 0.00 in0.0 mm 0.00 in0.0 mm
12:40 AM 46.7°F8.2°C 44.8°F7.1°C 93% Calm Calm -- 30.02 in1016.6 mb - 0.00 in0.0 mm 0.00 in0.0 mm
12:30 AM 48.3°F9.1°C 46.7°F8.2°C 94% Calm Calm -- 30.02 in1016.6 mb - 0.00 in0.0 mm 0.00 in0.0 mm
12:20 AM 48.0°F8.9°C 46.1°F7.8°C 93% Calm Calm -- 30.02 in1016.6 mb - 0.00 in0.0 mm 0.00 in0.0 mm
12:10 AM 47.9°F8.8°C 45.4°F7.4°C 91% Calm Calm -- 30.02 in1016.6 mb - 0.00 in0.0 mm 0.00 in0.0 mm
12:00 AM 49.2°F9.6°C 46.7°F8.2°C 91% Calm Calm -- 30.02 in1016.6 mb - 0.00 in0.0 mm 0.00 in0.0 mm